DATA ZE ZPRÁV METAR

Zprávy METAR jsou pravidelné letecké meteorologické zprávy o podmínkách na daném letišti, zejména o stavu oblačnosti, viditelnosti a průběhu počasí v poslední hodině. Na letištích s pravidelným provozem jsou vydávány každých 30 minut, jinak zpravidla jednou za hodinu. Ne každé letiště (zejména komerční) poskytuje zprávy po celých 24 hodin denně. Více o zprávách METAR najdete na této stránce.

Zprávy METAR z letišť v blízkém okolí

LKPR - Praha Ruzyně, Česká republika
Směr a vzdálenost od této stanice: ZJZ 98km
Aktualizováno: 11.12.2017 14:00
Jasno, Jasná obloha
Jasno, Jasná obloha
 Vítr ze směru VSV
Vítr: VSV 15 km/h
Teplota: 5°C
Chlad větru: 2°C
Rosný bod: 2°C
Vlhkost: 81%
Tlak vzduchu: 987 hPa
Stav počasí: Jasno
Oblačnost: Jasná obloha
Dohlednost: více než 10 km
2017/12/11 13:00 LKPR 111300Z 07008KT CAVOK 05/02 Q0987 NOSIG
LKTB - Brno Tuřany, Česká republika
Směr a vzdálenost od této stanice: JJV 174km
Aktualizováno: 11.12.2017 14:00
Skoro jasno
Skoro jasno
 Vítr ze směru JJV
Vítr: JJV 19 km/h, Náraz: 43 km/h
Teplota: 9°C
Chlad větru: 6°C
Rosný bod: 5°C
Vlhkost: 76%
Tlak vzduchu: 991 hPa
Oblačnost: Skoro jasno
Dohlednost: 10 km
Detaily oblačnosti: Skoro jasno 762 m
2017/12/11 13:00 LKTB 111300Z 16010G23KT 9999 FEW025 09/05 Q0991 NOSIG
 
LKKV - Karlovy Vary, Česká republika
Směr a vzdálenost od této stanice: Z 187km
Aktualizováno: 11.12.2017 14:00
Jasno, Jasná obloha
Jasno, Jasná obloha
 Vítr ze směru VSV
Vítr: VSV 9 km/h
Teplota: 4°C
Chlad větru: 2°C
Rosný bod: 3°C
Vlhkost: 93%
Tlak vzduchu: 985 hPa
Stav počasí: Jasno
Oblačnost: Jasná obloha
Dohlednost: více než 10 km
2017/12/11 13:00 LKKV 111300Z 07005KT CAVOK 04/03 Q0985 R29/29//95
LKMT - Ostrava Mošnov, Česká republika
Směr a vzdálenost od této stanice: VJV 208km
Aktualizováno: 11.12.2017 14:00
Skoro jasno
Skoro jasno
 Vítr ze směru J
Vítr: J 30 km/h, Náraz: 48 km/h
Teplota: 10°C
Chlad větru: 7°C
Rosný bod: 4°C
Vlhkost: 67%
Tlak vzduchu: 993 hPa
Oblačnost: Skoro jasno
Dohlednost: 10 km
Detaily oblačnosti: Skoro jasno 1006 m
2017/12/11 13:00 LKMT 111300Z 19016G26KT 9999 FEW033 10/04 Q0993 NOSIG
 
LKPD - Pardubice, Česká republika
Směr a vzdálenost od této stanice: JJV 56km
Aktualizováno: 11.12.2017 13:00
Jasno, Jasná obloha
Jasno, Jasná obloha
 Vítr ze směru V
Vítr: V 19 km/h
Teplota: 5°C
Chlad větru: 1°C
Rosný bod: 3°C
Vlhkost: 87%
Tlak vzduchu: 989 hPa
Stav počasí: Jasno
Oblačnost: Jasná obloha
Dohlednost: více než 10 km
2017/12/11 12:00 LKPD 111200Z 09010KT CAVOK 05/03 Q0989 NOSIG RMK BLU BLU
LKKB - Praha Kbely, Česká republika
Směr a vzdálenost od této stanice: ZJZ 81km
Aktualizováno: 11.12.2017 14:00
Jasno, Jasná obloha
Jasno, Jasná obloha
 Vítr ze směru V
Vítr: V 22 km/h
Teplota: 5°C
Chlad větru: 1°C
Rosný bod: 1°C
Vlhkost: 76%
Tlak vzduchu: 988 hPa
Stav počasí: Jasno
Oblačnost: Jasná obloha
Dohlednost: více než 10 km
2017/12/11 13:00 LKKB 111300Z 08012KT 030V100 CAVOK 05/01 Q0988 NOSIG
 
LKCV - Čáslav, Česká republika
Směr a vzdálenost od této stanice: J 63km
Aktualizováno: 11.12.2017 14:00
Zataženo
Zataženo
 Vítr ze směru VJV
Vítr: VJV 13 km/h
Teplota: 6°C
Chlad větru: 3°C
Rosný bod: 2°C
Vlhkost: 76%
Tlak vzduchu: 988 hPa
Oblačnost: Zataženo
Dohlednost: 10 km
Detaily oblačnosti: Skoro jasno 732 m
Skoro zataženo 2743 m
Zataženo 3353 m
2017/12/11 13:00 LKCV 111300Z 12007KT 9999 FEW024 BKN090 OVC110 06/02 Q0988 NOSIG RMK BLU BLU
LKNA - Náměšť n. Osl., Česká republika
Směr a vzdálenost od této stanice: JJV 154km
Aktualizováno: 11.12.2017 14:00
Zataženo
Zataženo
 Vítr ze směru JV
Vítr: JV 24 km/h
Teplota: 6°C
Chlad větru: 2°C
Rosný bod: 4°C
Vlhkost: 87%
Tlak vzduchu: 990 hPa
Oblačnost: Zataženo
Dohlednost: 10 km
Detaily oblačnosti: Skoro jasno 305 m
Skoro zataženo 3658 m
Zataženo 5486 m
2017/12/11 13:00 LKNA 111300Z 13013KT 9999 FEW010 BKN120 OVC180 06/04 Q0990 NOSIG RMK BLU BLU
 
LKLN - Plzeň Líně, Česká republika
Směr a vzdálenost od této stanice: ZJZ 184km
Aktualizováno: 11.12.2017 14:00
Polojasno
Polojasno
 Vítr ze směru V
Vítr: V 13 km/h
Teplota: 6°C
Chlad větru: 3°C
Rosný bod: 1°C
Vlhkost: 71%
Tlak vzduchu: 985 hPa
Oblačnost: Polojasno
Dohlednost: 10 km
Detaily oblačnosti: Polojasno 2652 m
2017/12/11 13:00 LKLN 111300Z AUTO 08007KT 040V110 9999 SCT087 06/01 Q0985
EDDC - Dresden Klotzsch, Německo
Směr a vzdálenost od této stanice: ZSZ 142km
Aktualizováno: 11.12.2017 13:50
Jasno, Jasná obloha
Jasno, Jasná obloha
 Vítr ze směru VJV
Vítr: VJV 17 km/h
Teplota: 6°C
Chlad větru: 3°C
Rosný bod: 4°C
Vlhkost: 87%
Tlak vzduchu: 985 hPa
Stav počasí: Jasno
Oblačnost: Jasná obloha
Dohlednost: více než 10 km
2017/12/11 12:50 EDDC 111250Z 12009KT CAVOK 06/04 Q0985 NOSIG